sensor_id;sensor_type;location;lat;lon;timestamp;P1;durP1;ratioP1;P2;durP2;ratioP2
22449;SDS011;11392;57.390;-2.468;2022-07-10T00:01:03;0.70;;;0.70;;
22449;SDS011;11392;57.390;-2.468;2022-07-10T00:03:30;0.45;;;0.40;;
22449;SDS011;11392;57.390;-2.468;2022-07-10T00:05:57;0.50;;;0.50;;
22449;SDS011;11392;57.390;-2.468;2022-07-10T00:08:24;0.43;;;0.43;;
22449;SDS011;11392;57.390;-2.468;2022-07-10T00:10:51;1.23;;;0.50;;
22449;SDS011;11392;57.390;-2.468;2022-07-10T00:13:18;1.27;;;0.40;;
22449;SDS011;11392;57.390;-2.468;2022-07-10T00:15:45;0.60;;;0.40;;
22449;SDS011;11392;57.390;-2.468;2022-07-10T00:18:12;0.65;;;0.60;;
22449;SDS011;11392;57.390;-2.468;2022-07-10T00:20:39;0.77;;;0.70;;
22449;SDS011;11392;57.390;-2.468;2022-07-10T00:23:07;1.00;;;0.93;;
22449;SDS011;11392;57.390;-2.468;2022-07-10T00:25:34;1.52;;;0.60;;
22449;SDS011;11392;57.390;-2.468;2022-07-10T00:28:01;1.05;;;0.50;;
22449;SDS011;11392;57.390;-2.468;2022-07-10T00:30:28;0.65;;;0.47;;
22449;SDS011;11392;57.390;-2.468;2022-07-10T00:32:55;0.65;;;0.60;;
22449;SDS011;11392;57.390;-2.468;2022-07-10T00:35:23;0.60;;;0.60;;
22449;SDS011;11392;57.390;-2.468;2022-07-10T00:37:50;0.50;;;0.50;;
22449;SDS011;11392;57.390;-2.468;2022-07-10T00:40:17;1.15;;;0.60;;
22449;SDS011;11392;57.390;-2.468;2022-07-10T00:42:44;0.75;;;0.57;;
22449;SDS011;11392;57.390;-2.468;2022-07-10T00:45:10;1.45;;;0.60;;
22449;SDS011;11392;57.390;-2.468;2022-07-10T00:47:38;0.52;;;0.52;;
22449;SDS011;11392;57.390;-2.468;2022-07-10T00:50:06;1.20;;;0.60;;
22449;SDS011;11392;57.390;-2.468;2022-07-10T00:52:33;0.62;;;0.50;;
22449;SDS011;11392;57.390;-2.468;2022-07-10T00:55:05;0.95;;;0.70;;
22449;SDS011;11392;57.390;-2.468;2022-07-10T00:57:35;1.55;;;0.57;;
22449;SDS011;11392;57.390;-2.468;2022-07-10T01:00:03;0.37;;;0.37;;
22449;SDS011;11392;57.390;-2.468;2022-07-10T01:02:31;0.60;;;0.40;;
22449;SDS011;11392;57.390;-2.468;2022-07-10T01:04:58;0.60;;;0.43;;
22449;SDS011;11392;57.390;-2.468;2022-07-10T01:07:25;0.50;;;0.43;;
22449;SDS011;11392;57.390;-2.468;2022-07-10T01:09:52;1.52;;;0.50;;
22449;SDS011;11392;57.390;-2.468;2022-07-10T01:12:19;0.62;;;0.50;;
22449;SDS011;11392;57.390;-2.468;2022-07-10T01:14:47;0.93;;;0.65;;
22449;SDS011;11392;57.390;-2.468;2022-07-10T01:17:14;0.55;;;0.55;;
22449;SDS011;11392;57.390;-2.468;2022-07-10T01:19:42;0.45;;;0.40;;
22449;SDS011;11392;57.390;-2.468;2022-07-10T01:22:09;0.50;;;0.50;;
22449;SDS011;11392;57.390;-2.468;2022-07-10T01:24:36;0.98;;;0.50;;
22449;SDS011;11392;57.390;-2.468;2022-07-10T01:27:03;0.82;;;0.73;;
22449;SDS011;11392;57.390;-2.468;2022-07-10T01:29:31;2.05;;;0.60;;
22449;SDS011;11392;57.390;-2.468;2022-07-10T01:31:58;0.50;;;0.50;;
22449;SDS011;11392;57.390;-2.468;2022-07-10T01:34:27;0.50;;;0.50;;
22449;SDS011;11392;57.390;-2.468;2022-07-10T01:36:54;0.60;;;0.60;;
22449;SDS011;11392;57.390;-2.468;2022-07-10T01:39:21;0.50;;;0.50;;
22449;SDS011;11392;57.390;-2.468;2022-07-10T01:41:48;1.30;;;0.37;;
22449;SDS011;11392;57.390;-2.468;2022-07-10T01:44:15;0.50;;;0.50;;
22449;SDS011;11392;57.390;-2.468;2022-07-10T01:46:46;0.40;;;0.40;;
22449;SDS011;11392;57.390;-2.468;2022-07-10T01:49:14;1.52;;;0.70;;
22449;SDS011;11392;57.390;-2.468;2022-07-10T01:51:41;0.95;;;0.60;;
22449;SDS011;11392;57.390;-2.468;2022-07-10T01:54:09;0.62;;;0.62;;
22449;SDS011;11392;57.390;-2.468;2022-07-10T01:56:36;0.40;;;0.37;;
22449;SDS011;11392;57.390;-2.468;2022-07-10T01:59:04;0.50;;;0.50;;
22449;SDS011;11392;57.390;-2.468;2022-07-10T02:01:31;0.40;;;0.40;;
22449;SDS011;11392;57.390;-2.468;2022-07-10T02:03:58;0.37;;;0.37;;
22449;SDS011;11392;57.390;-2.468;2022-07-10T02:06:44;1.12;;;0.52;;
22449;SDS011;11392;57.390;-2.468;2022-07-10T02:09:11;1.00;;;0.60;;
22449;SDS011;11392;57.390;-2.468;2022-07-10T02:11:39;0.43;;;0.40;;
22449;SDS011;11392;57.390;-2.468;2022-07-10T02:14:06;0.40;;;0.40;;
22449;SDS011;11392;57.390;-2.468;2022-07-10T02:16:34;1.23;;;0.40;;
22449;SDS011;11392;57.390;-2.468;2022-07-10T02:19:02;0.93;;;0.90;;
22449;SDS011;11392;57.390;-2.468;2022-07-10T02:21:29;0.50;;;0.50;;
22449;SDS011;11392;57.390;-2.468;2022-07-10T02:23:56;0.55;;;0.55;;
22449;SDS011;11392;57.390;-2.468;2022-07-10T02:26:23;0.90;;;0.55;;
22449;SDS011;11392;57.390;-2.468;2022-07-10T02:28:50;0.60;;;0.60;;
22449;SDS011;11392;57.390;-2.468;2022-07-10T02:31:17;1.30;;;0.50;;
22449;SDS011;11392;57.390;-2.468;2022-07-10T02:33:45;0.70;;;0.70;;
22449;SDS011;11392;57.390;-2.468;2022-07-10T02:36:12;0.60;;;0.60;;
22449;SDS011;11392;57.390;-2.468;2022-07-10T02:38:39;0.70;;;0.62;;
22449;SDS011;11392;57.390;-2.468;2022-07-10T02:41:06;0.98;;;0.75;;
22449;SDS011;11392;57.390;-2.468;2022-07-10T02:43:33;0.95;;;0.50;;
22449;SDS011;11392;57.390;-2.468;2022-07-10T02:46:00;0.50;;;0.50;;
22449;SDS011;11392;57.390;-2.468;2022-07-10T02:48:28;0.62;;;0.62;;
22449;SDS011;11392;57.390;-2.468;2022-07-10T02:50:55;1.40;;;0.90;;
22449;SDS011;11392;57.390;-2.468;2022-07-10T02:53:22;1.40;;;0.50;;
22449;SDS011;11392;57.390;-2.468;2022-07-10T02:55:49;0.55;;;0.50;;
22449;SDS011;11392;57.390;-2.468;2022-07-10T02:58:16;0.57;;;0.50;;
22449;SDS011;11392;57.390;-2.468;2022-07-10T03:00:44;0.50;;;0.50;;
22449;SDS011;11392;57.390;-2.468;2022-07-10T03:03:11;0.98;;;0.55;;
22449;SDS011;11392;57.390;-2.468;2022-07-10T03:05:38;1.27;;;0.47;;
22449;SDS011;11392;57.390;-2.468;2022-07-10T03:08:05;0.75;;;0.52;;
22449;SDS011;11392;57.390;-2.468;2022-07-10T03:10:32;0.65;;;0.55;;
22449;SDS011;11392;57.390;-2.468;2022-07-10T03:12:59;0.80;;;0.50;;
22449;SDS011;11392;57.390;-2.468;2022-07-10T03:15:26;0.82;;;0.70;;
22449;SDS011;11392;57.390;-2.468;2022-07-10T03:17:53;0.50;;;0.40;;
22449;SDS011;11392;57.390;-2.468;2022-07-10T03:20:20;0.50;;;0.50;;
22449;SDS011;11392;57.390;-2.468;2022-07-10T03:22:47;0.60;;;0.60;;
22449;SDS011;11392;57.390;-2.468;2022-07-10T03:25:14;1.30;;;0.68;;
22449;SDS011;11392;57.390;-2.468;2022-07-10T03:27:42;0.45;;;0.43;;
22449;SDS011;11392;57.390;-2.468;2022-07-10T03:30:09;0.50;;;0.50;;
22449;SDS011;11392;57.390;-2.468;2022-07-10T03:32:36;0.93;;;0.68;;
22449;SDS011;11392;57.390;-2.468;2022-07-10T03:35:03;0.98;;;0.52;;
22449;SDS011;11392;57.390;-2.468;2022-07-10T03:37:31;0.47;;;0.45;;
22449;SDS011;11392;57.390;-2.468;2022-07-10T03:39:58;0.50;;;0.50;;
22449;SDS011;11392;57.390;-2.468;2022-07-10T03:42:24;1.73;;;0.60;;
22449;SDS011;11392;57.390;-2.468;2022-07-10T03:44:51;0.50;;;0.50;;
22449;SDS011;11392;57.390;-2.468;2022-07-10T03:47:18;0.50;;;0.50;;
22449;SDS011;11392;57.390;-2.468;2022-07-10T03:49:45;0.50;;;0.50;;
22449;SDS011;11392;57.390;-2.468;2022-07-10T03:52:12;0.62;;;0.55;;
22449;SDS011;11392;57.390;-2.468;2022-07-10T03:54:39;0.95;;;0.50;;
22449;SDS011;11392;57.390;-2.468;2022-07-10T03:57:06;0.82;;;0.50;;
22449;SDS011;11392;57.390;-2.468;2022-07-10T03:59:52;0.45;;;0.45;;
22449;SDS011;11392;57.390;-2.468;2022-07-10T04:02:19;0.50;;;0.45;;
22449;SDS011;11392;57.390;-2.468;2022-07-10T04:04:46;0.80;;;0.60;;
22449;SDS011;11392;57.390;-2.468;2022-07-10T04:07:13;1.48;;;0.70;;
22449;SDS011;11392;57.390;-2.468;2022-07-10T04:09:40;0.60;;;0.50;;
22449;SDS011;11392;57.390;-2.468;2022-07-10T04:12:07;1.08;;;0.50;;
22449;SDS011;11392;57.390;-2.468;2022-07-10T04:14:34;0.43;;;0.40;;
22449;SDS011;11392;57.390;-2.468;2022-07-10T04:17:01;0.40;;;0.40;;
22449;SDS011;11392;57.390;-2.468;2022-07-10T04:19:28;0.57;;;0.50;;
22449;SDS011;11392;57.390;-2.468;2022-07-10T04:21:55;0.68;;;0.50;;
22449;SDS011;11392;57.390;-2.468;2022-07-10T04:24:22;0.52;;;0.50;;
22449;SDS011;11392;57.390;-2.468;2022-07-10T04:26:49;0.73;;;0.50;;
22449;SDS011;11392;57.390;-2.468;2022-07-10T04:29:16;0.50;;;0.50;;
22449;SDS011;11392;57.390;-2.468;2022-07-10T04:31:43;1.10;;;0.40;;
22449;SDS011;11392;57.390;-2.468;2022-07-10T04:34:10;0.50;;;0.50;;
22449;SDS011;11392;57.390;-2.468;2022-07-10T04:36:37;0.80;;;0.60;;
22449;SDS011;11392;57.390;-2.468;2022-07-10T04:39:04;0.57;;;0.55;;
22449;SDS011;11392;57.390;-2.468;2022-07-10T04:41:31;0.82;;;0.60;;
22449;SDS011;11392;57.390;-2.468;2022-07-10T04:43:58;0.50;;;0.50;;
22449;SDS011;11392;57.390;-2.468;2022-07-10T04:46:25;1.35;;;0.60;;
22449;SDS011;11392;57.390;-2.468;2022-07-10T04:48:52;0.45;;;0.45;;
22449;SDS011;11392;57.390;-2.468;2022-07-10T04:51:19;0.80;;;0.50;;
22449;SDS011;11392;57.390;-2.468;2022-07-10T04:53:46;1.58;;;0.50;;
22449;SDS011;11392;57.390;-2.468;2022-07-10T04:56:13;0.52;;;0.52;;
22449;SDS011;11392;57.390;-2.468;2022-07-10T04:58:40;1.52;;;0.60;;
22449;SDS011;11392;57.390;-2.468;2022-07-10T05:01:12;0.47;;;0.45;;
22449;SDS011;11392;57.390;-2.468;2022-07-10T05:03:39;0.52;;;0.52;;
22449;SDS011;11392;57.390;-2.468;2022-07-10T05:06:06;2.58;;;0.68;;
22449;SDS011;11392;57.390;-2.468;2022-07-10T05:08:33;0.70;;;0.50;;
22449;SDS011;11392;57.390;-2.468;2022-07-10T05:11:00;0.70;;;0.47;;
22449;SDS011;11392;57.390;-2.468;2022-07-10T05:13:27;0.40;;;0.40;;
22449;SDS011;11392;57.390;-2.468;2022-07-10T05:15:54;1.25;;;0.50;;
22449;SDS011;11392;57.390;-2.468;2022-07-10T05:18:21;1.00;;;0.50;;
22449;SDS011;11392;57.390;-2.468;2022-07-10T05:20:48;0.30;;;0.30;;
22449;SDS011;11392;57.390;-2.468;2022-07-10T05:23:15;0.50;;;0.50;;
22449;SDS011;11392;57.390;-2.468;2022-07-10T05:25:42;0.50;;;0.50;;
22449;SDS011;11392;57.390;-2.468;2022-07-10T05:28:09;0.40;;;0.40;;
22449;SDS011;11392;57.390;-2.468;2022-07-10T05:30:39;0.55;;;0.30;;
22449;SDS011;11392;57.390;-2.468;2022-07-10T05:33:06;0.55;;;0.40;;
22449;SDS011;11392;57.390;-2.468;2022-07-10T05:35:33;0.88;;;0.45;;
22449;SDS011;11392;57.390;-2.468;2022-07-10T05:38:00;0.50;;;0.50;;
22449;SDS011;11392;57.390;-2.468;2022-07-10T05:40:27;0.35;;;0.30;;
22449;SDS011;11392;57.390;-2.468;2022-07-10T05:42:54;1.08;;;0.65;;
22449;SDS011;11392;57.390;-2.468;2022-07-10T05:45:21;0.40;;;0.37;;
22449;SDS011;11392;57.390;-2.468;2022-07-10T05:47:48;0.55;;;0.40;;
22449;SDS011;11392;57.390;-2.468;2022-07-10T05:50:15;0.82;;;0.30;;
22449;SDS011;11392;57.390;-2.468;2022-07-10T05:52:42;0.32;;;0.32;;
22449;SDS011;11392;57.390;-2.468;2022-07-10T05:55:09;0.40;;;0.40;;
22449;SDS011;11392;57.390;-2.468;2022-07-10T05:57:37;0.52;;;0.40;;
22449;SDS011;11392;57.390;-2.468;2022-07-10T06:00:04;0.60;;;0.40;;
22449;SDS011;11392;57.390;-2.468;2022-07-10T06:02:32;1.05;;;0.70;;
22449;SDS011;11392;57.390;-2.468;2022-07-10T06:04:59;0.37;;;0.32;;
22449;SDS011;11392;57.390;-2.468;2022-07-10T06:07:26;0.47;;;0.32;;
22449;SDS011;11392;57.390;-2.468;2022-07-10T06:09:54;0.60;;;0.40;;
22449;SDS011;11392;57.390;-2.468;2022-07-10T06:12:21;0.40;;;0.40;;
22449;SDS011;11392;57.390;-2.468;2022-07-10T06:14:48;0.45;;;0.45;;
22449;SDS011;11392;57.390;-2.468;2022-07-10T06:17:16;0.40;;;0.30;;
22449;SDS011;11392;57.390;-2.468;2022-07-10T06:19:43;0.40;;;0.40;;
22449;SDS011;11392;57.390;-2.468;2022-07-10T06:22:10;0.40;;;0.30;;
22449;SDS011;11392;57.390;-2.468;2022-07-10T06:25:06;0.35;;;0.35;;
22449;SDS011;11392;57.390;-2.468;2022-07-10T06:27:34;0.50;;;0.50;;
22449;SDS011;11392;57.390;-2.468;2022-07-10T06:30:02;0.43;;;0.43;;
22449;SDS011;11392;57.390;-2.468;2022-07-10T06:32:29;1.30;;;0.50;;
22449;SDS011;11392;57.390;-2.468;2022-07-10T06:34:56;0.68;;;0.50;;
22449;SDS011;11392;57.390;-2.468;2022-07-10T06:37:23;0.70;;;0.37;;
22449;SDS011;11392;57.390;-2.468;2022-07-10T06:39:50;0.37;;;0.32;;
22449;SDS011;11392;57.390;-2.468;2022-07-10T06:42:17;0.50;;;0.35;;
22449;SDS011;11392;57.390;-2.468;2022-07-10T06:44:44;0.90;;;0.40;;
22449;SDS011;11392;57.390;-2.468;2022-07-10T06:47:11;0.52;;;0.37;;
22449;SDS011;11392;57.390;-2.468;2022-07-10T06:49:58;0.45;;;0.45;;
22449;SDS011;11392;57.390;-2.468;2022-07-10T06:52:26;0.45;;;0.30;;
22449;SDS011;11392;57.390;-2.468;2022-07-10T06:54:53;1.80;;;0.30;;
22449;SDS011;11392;57.390;-2.468;2022-07-10T06:57:20;0.85;;;0.30;;
22449;SDS011;11392;57.390;-2.468;2022-07-10T06:59:47;0.43;;;0.22;;
22449;SDS011;11392;57.390;-2.468;2022-07-10T07:02:14;0.50;;;0.32;;
22449;SDS011;11392;57.390;-2.468;2022-07-10T07:04:41;0.43;;;0.28;;
22449;SDS011;11392;57.390;-2.468;2022-07-10T07:07:11;2.15;;;0.30;;
22449;SDS011;11392;57.390;-2.468;2022-07-10T07:09:47;0.43;;;0.32;;
22449;SDS011;11392;57.390;-2.468;2022-07-10T07:12:16;0.35;;;0.30;;
22449;SDS011;11392;57.390;-2.468;2022-07-10T07:14:46;0.30;;;0.30;;
22449;SDS011;11392;57.390;-2.468;2022-07-10T07:17:13;0.25;;;0.25;;
22449;SDS011;11392;57.390;-2.468;2022-07-10T07:19:51;0.75;;;0.35;;
22449;SDS011;11392;57.390;-2.468;2022-07-10T07:22:37;0.40;;;0.30;;
22449;SDS011;11392;57.390;-2.468;2022-07-10T07:25:23;0.40;;;0.40;;
22449;SDS011;11392;57.390;-2.468;2022-07-10T07:27:50;0.43;;;0.40;;
22449;SDS011;11392;57.390;-2.468;2022-07-10T07:30:17;1.48;;;0.45;;
22449;SDS011;11392;57.390;-2.468;2022-07-10T07:32:44;0.40;;;0.40;;
22449;SDS011;11392;57.390;-2.468;2022-07-10T07:35:12;0.30;;;0.30;;
22449;SDS011;11392;57.390;-2.468;2022-07-10T07:37:44;0.55;;;0.40;;
22449;SDS011;11392;57.390;-2.468;2022-07-10T07:40:14;0.22;;;0.22;;
22449;SDS011;11392;57.390;-2.468;2022-07-10T07:42:42;1.45;;;0.30;;
22449;SDS011;11392;57.390;-2.468;2022-07-10T07:45:09;1.58;;;0.20;;
22449;SDS011;11392;57.390;-2.468;2022-07-10T07:47:44;0.93;;;0.40;;
22449;SDS011;11392;57.390;-2.468;2022-07-10T07:50:12;0.28;;;0.28;;
22449;SDS011;11392;57.390;-2.468;2022-07-10T07:52:40;0.50;;;0.30;;
22449;SDS011;11392;57.390;-2.468;2022-07-10T07:55:07;0.13;;;0.13;;
22449;SDS011;11392;57.390;-2.468;2022-07-10T07:57:35;1.25;;;0.40;;
22449;SDS011;11392;57.390;-2.468;2022-07-10T08:00:07;0.20;;;0.20;;
22449;SDS011;11392;57.390;-2.468;2022-07-10T08:02:35;0.20;;;0.20;;
22449;SDS011;11392;57.390;-2.468;2022-07-10T08:05:03;0.37;;;0.37;;
22449;SDS011;11392;57.390;-2.468;2022-07-10T08:07:34;0.20;;;0.20;;
22449;SDS011;11392;57.390;-2.468;2022-07-10T08:10:03;0.05;;;0.05;;
22449;SDS011;11392;57.390;-2.468;2022-07-10T08:12:31;0.50;;;0.30;;
22449;SDS011;11392;57.390;-2.468;2022-07-10T08:14:58;0.35;;;0.30;;
22449;SDS011;11392;57.390;-2.468;2022-07-10T08:17:25;0.28;;;0.15;;
22449;SDS011;11392;57.390;-2.468;2022-07-10T08:19:53;0.80;;;0.30;;
22449;SDS011;11392;57.390;-2.468;2022-07-10T08:22:20;0.40;;;0.25;;
22449;SDS011;11392;57.390;-2.468;2022-07-10T08:24:47;0.20;;;0.17;;
22449;SDS011;11392;57.390;-2.468;2022-07-10T08:27:14;0.60;;;0.28;;
22449;SDS011;11392;57.390;-2.468;2022-07-10T08:29:42;0.43;;;0.43;;
22449;SDS011;11392;57.390;-2.468;2022-07-10T08:32:09;0.50;;;0.28;;
22449;SDS011;11392;57.390;-2.468;2022-07-10T08:34:36;0.20;;;0.20;;
22449;SDS011;11392;57.390;-2.468;2022-07-10T08:37:03;0.20;;;0.20;;
22449;SDS011;11392;57.390;-2.468;2022-07-10T08:39:31;0.32;;;0.10;;
22449;SDS011;11392;57.390;-2.468;2022-07-10T08:41:59;0.80;;;0.25;;
22449;SDS011;11392;57.390;-2.468;2022-07-10T08:44:30;0.88;;;0.20;;
22449;SDS011;11392;57.390;-2.468;2022-07-10T08:46:57;0.43;;;0.20;;
22449;SDS011;11392;57.390;-2.468;2022-07-10T08:49:26;0.15;;;0.15;;
22449;SDS011;11392;57.390;-2.468;2022-07-10T08:51:58;0.45;;;0.10;;
22449;SDS011;11392;57.390;-2.468;2022-07-10T08:54:30;0.70;;;0.30;;
22449;SDS011;11392;57.390;-2.468;2022-07-10T08:56:59;0.60;;;0.20;;
22449;SDS011;11392;57.390;-2.468;2022-07-10T08:59:28;1.27;;;0.22;;
22449;SDS011;11392;57.390;-2.468;2022-07-10T09:01:57;0.40;;;0.30;;
22449;SDS011;11392;57.390;-2.468;2022-07-10T09:04:26;0.50;;;0.20;;
22449;SDS011;11392;57.390;-2.468;2022-07-10T09:06:54;0.25;;;0.20;;
22449;SDS011;11392;57.390;-2.468;2022-07-10T09:09:22;0.70;;;0.20;;
22449;SDS011;11392;57.390;-2.468;2022-07-10T09:11:54;0.65;;;0.40;;
22449;SDS011;11392;57.390;-2.468;2022-07-10T09:14:25;0.45;;;0.20;;
22449;SDS011;11392;57.390;-2.468;2022-07-10T09:17:01;0.60;;;0.30;;
22449;SDS011;11392;57.390;-2.468;2022-07-10T09:19:29;0.40;;;0.25;;
22449;SDS011;11392;57.390;-2.468;2022-07-10T09:22:02;0.88;;;0.25;;
22449;SDS011;11392;57.390;-2.468;2022-07-10T09:24:36;0.10;;;0.10;;
22449;SDS011;11392;57.390;-2.468;2022-07-10T09:27:08;1.25;;;0.20;;
22449;SDS011;11392;57.390;-2.468;2022-07-10T09:29:47;0.28;;;0.20;;
22449;SDS011;11392;57.390;-2.468;2022-07-10T09:32:16;0.20;;;0.20;;
22449;SDS011;11392;57.390;-2.468;2022-07-10T09:34:44;1.05;;;0.40;;
22449;SDS011;11392;57.390;-2.468;2022-07-10T09:37:47;1.52;;;0.40;;
22449;SDS011;11392;57.390;-2.468;2022-07-10T09:40:08;0.50;;;0.50;;
22449;SDS011;11392;57.390;-2.468;2022-07-10T09:42:36;0.20;;;0.20;;
22449;SDS011;11392;57.390;-2.468;2022-07-10T09:47:53;0.37;;;0.20;;
22449;SDS011;11392;57.390;-2.468;2022-07-10T09:50:26;0.28;;;0.20;;
22449;SDS011;11392;57.390;-2.468;2022-07-10T09:53:01;0.30;;;0.30;;
22449;SDS011;11392;57.390;-2.468;2022-07-10T09:55:30;1.37;;;0.25;;
22449;SDS011;11392;57.390;-2.468;2022-07-10T09:58:00;0.15;;;0.15;;
22449;SDS011;11392;57.390;-2.468;2022-07-10T10:00:31;0.47;;;0.20;;
22449;SDS011;11392;57.390;-2.468;2022-07-10T10:03:05;0.30;;;0.20;;
22449;SDS011;11392;57.390;-2.468;2022-07-10T10:05:36;0.15;;;0.10;;
22449;SDS011;11392;57.390;-2.468;2022-07-10T10:08:09;0.30;;;0.30;;
22449;SDS011;11392;57.390;-2.468;2022-07-10T10:10:48;0.20;;;0.20;;
22449;SDS011;11392;57.390;-2.468;2022-07-10T10:13:17;0.30;;;0.15;;
22449;SDS011;11392;57.390;-2.468;2022-07-10T10:15:49;0.65;;;0.30;;
22449;SDS011;11392;57.390;-2.468;2022-07-10T10:18:18;0.22;;;0.17;;
22449;SDS011;11392;57.390;-2.468;2022-07-10T10:20:47;0.25;;;0.25;;
22449;SDS011;11392;57.390;-2.468;2022-07-10T10:23:19;0.30;;;0.20;;
22449;SDS011;11392;57.390;-2.468;2022-07-10T10:25:49;0.10;;;0.10;;
22449;SDS011;11392;57.390;-2.468;2022-07-10T10:28:17;0.32;;;0.20;;
22449;SDS011;11392;57.390;-2.468;2022-07-10T10:30:57;0.30;;;0.30;;
22449;SDS011;11392;57.390;-2.468;2022-07-10T10:36:09;0.30;;;0.30;;
22449;SDS011;11392;57.390;-2.468;2022-07-10T10:46:57;0.40;;;0.22;;
22449;SDS011;11392;57.390;-2.468;2022-07-10T10:49:51;0.28;;;0.20;;
22449;SDS011;11392;57.390;-2.468;2022-07-10T10:52:20;0.45;;;0.30;;
22449;SDS011;11392;57.390;-2.468;2022-07-10T10:57:34;0.30;;;0.30;;
22449;SDS011;11392;57.390;-2.468;2022-07-10T11:00:15;0.20;;;0.20;;
22449;SDS011;11392;57.390;-2.468;2022-07-10T11:03:14;1.30;;;0.10;;
22449;SDS011;11392;57.390;-2.468;2022-07-10T11:05:47;0.70;;;0.22;;
22449;SDS011;11392;57.390;-2.468;2022-07-10T11:08:35;0.20;;;0.20;;
22449;SDS011;11392;57.390;-2.468;2022-07-10T11:13:58;0.85;;;0.20;;
22449;SDS011;11392;57.390;-2.468;2022-07-10T11:16:25;0.20;;;0.20;;
22449;SDS011;11392;57.390;-2.468;2022-07-10T11:18:52;0.20;;;0.20;;
22449;SDS011;11392;57.390;-2.468;2022-07-10T11:21:24;0.30;;;0.10;;
22449;SDS011;11392;57.390;-2.468;2022-07-10T11:24:10;0.65;;;0.30;;
22449;SDS011;11392;57.390;-2.468;2022-07-10T11:29:59;0.20;;;0.20;;
22449;SDS011;11392;57.390;-2.468;2022-07-10T11:32:29;0.20;;;0.20;;
22449;SDS011;11392;57.390;-2.468;2022-07-10T11:34:57;0.30;;;0.20;;
22449;SDS011;11392;57.390;-2.468;2022-07-10T11:37:24;0.25;;;0.25;;
22449;SDS011;11392;57.390;-2.468;2022-07-10T11:40:07;0.80;;;0.22;;
22449;SDS011;11392;57.390;-2.468;2022-07-10T11:42:50;0.43;;;0.25;;
22449;SDS011;11392;57.390;-2.468;2022-07-10T11:45:29;0.20;;;0.20;;
22449;SDS011;11392;57.390;-2.468;2022-07-10T11:47:57;0.28;;;0.25;;
22449;SDS011;11392;57.390;-2.468;2022-07-10T11:50:25;0.28;;;0.20;;
22449;SDS011;11392;57.390;-2.468;2022-07-10T11:52:53;0.20;;;0.20;;
22449;SDS011;11392;57.390;-2.468;2022-07-10T11:55:21;0.50;;;0.30;;
22449;SDS011;11392;57.390;-2.468;2022-07-10T11:57:49;0.32;;;0.30;;
22449;SDS011;11392;57.390;-2.468;2022-07-10T12:00:29;0.25;;;0.20;;
22449;SDS011;11392;57.390;-2.468;2022-07-10T12:02:57;0.47;;;0.40;;
22449;SDS011;11392;57.390;-2.468;2022-07-10T12:05:54;0.40;;;0.30;;
22449;SDS011;11392;57.390;-2.468;2022-07-10T12:08:21;0.30;;;0.30;;
22449;SDS011;11392;57.390;-2.468;2022-07-10T12:10:49;0.28;;;0.28;;
22449;SDS011;11392;57.390;-2.468;2022-07-10T12:13:18;0.62;;;0.50;;
22449;SDS011;11392;57.390;-2.468;2022-07-10T12:15:45;0.62;;;0.50;;
22449;SDS011;11392;57.390;-2.468;2022-07-10T12:18:16;1.10;;;1.00;;
22449;SDS011;11392;57.390;-2.468;2022-07-10T12:20:49;0.90;;;0.70;;
22449;SDS011;11392;57.390;-2.468;2022-07-10T12:23:19;2.50;;;1.33;;
22449;SDS011;11392;57.390;-2.468;2022-07-10T12:25:47;0.80;;;0.70;;
22449;SDS011;11392;57.390;-2.468;2022-07-10T12:28:17;1.33;;;0.80;;
22449;SDS011;11392;57.390;-2.468;2022-07-10T12:30:48;1.85;;;0.88;;
22449;SDS011;11392;57.390;-2.468;2022-07-10T12:33:16;2.33;;;0.95;;
22449;SDS011;11392;57.390;-2.468;2022-07-10T12:35:57;2.15;;;0.90;;
22449;SDS011;11392;57.390;-2.468;2022-07-10T12:38:26;1.60;;;0.85;;
22449;SDS011;11392;57.390;-2.468;2022-07-10T12:41:07;1.85;;;1.00;;
22449;SDS011;11392;57.390;-2.468;2022-07-10T12:43:38;1.30;;;0.70;;
22449;SDS011;11392;57.390;-2.468;2022-07-10T12:46:16;1.60;;;0.82;;
22449;SDS011;11392;57.390;-2.468;2022-07-10T12:49:03;1.98;;;0.88;;
22449;SDS011;11392;57.390;-2.468;2022-07-10T12:51:47;2.17;;;0.93;;
22449;SDS011;11392;57.390;-2.468;2022-07-10T12:54:35;0.98;;;0.80;;
22449;SDS011;11392;57.390;-2.468;2022-07-10T12:57:04;1.60;;;0.75;;
22449;SDS011;11392;57.390;-2.468;2022-07-10T12:59:32;2.03;;;1.00;;
22449;SDS011;11392;57.390;-2.468;2022-07-10T13:02:35;0.77;;;0.62;;
22449;SDS011;11392;57.390;-2.468;2022-07-10T13:04:56;0.62;;;0.60;;
22449;SDS011;11392;57.390;-2.468;2022-07-10T13:07:31;1.37;;;0.80;;
22449;SDS011;11392;57.390;-2.468;2022-07-10T13:10:03;0.98;;;0.73;;
22449;SDS011;11392;57.390;-2.468;2022-07-10T13:12:32;1.10;;;0.80;;
22449;SDS011;11392;57.390;-2.468;2022-07-10T13:15:00;1.23;;;0.70;;
22449;SDS011;11392;57.390;-2.468;2022-07-10T13:17:34;2.45;;;0.90;;
22449;SDS011;11392;57.390;-2.468;2022-07-10T13:20:10;2.37;;;1.20;;
22449;SDS011;11392;57.390;-2.468;2022-07-10T13:22:37;2.05;;;0.93;;
22449;SDS011;11392;57.390;-2.468;2022-07-10T13:25:04;1.35;;;0.88;;
22449;SDS011;11392;57.390;-2.468;2022-07-10T13:27:32;1.95;;;0.90;;
22449;SDS011;11392;57.390;-2.468;2022-07-10T13:30:00;1.55;;;1.00;;
22449;SDS011;11392;57.390;-2.468;2022-07-10T13:32:27;1.25;;;0.90;;
22449;SDS011;11392;57.390;-2.468;2022-07-10T13:34:55;1.00;;;1.00;;
22449;SDS011;11392;57.390;-2.468;2022-07-10T13:37:23;2.90;;;1.23;;
22449;SDS011;11392;57.390;-2.468;2022-07-10T13:39:50;1.60;;;0.70;;
22449;SDS011;11392;57.390;-2.468;2022-07-10T13:42:17;0.93;;;0.80;;
22449;SDS011;11392;57.390;-2.468;2022-07-10T13:44:44;1.48;;;1.00;;
22449;SDS011;11392;57.390;-2.468;2022-07-10T13:47:11;1.73;;;1.00;;
22449;SDS011;11392;57.390;-2.468;2022-07-10T13:49:38;1.77;;;0.88;;
22449;SDS011;11392;57.390;-2.468;2022-07-10T13:52:05;1.10;;;1.00;;
22449;SDS011;11392;57.390;-2.468;2022-07-10T13:54:32;0.80;;;0.80;;
22449;SDS011;11392;57.390;-2.468;2022-07-10T13:56:59;2.87;;;1.30;;
22449;SDS011;11392;57.390;-2.468;2022-07-10T13:59:26;1.87;;;0.90;;
22449;SDS011;11392;57.390;-2.468;2022-07-10T14:01:53;1.48;;;1.17;;
22449;SDS011;11392;57.390;-2.468;2022-07-10T14:04:20;3.67;;;1.48;;
22449;SDS011;11392;57.390;-2.468;2022-07-10T14:06:47;2.22;;;1.10;;
22449;SDS011;11392;57.390;-2.468;2022-07-10T14:09:14;1.45;;;1.00;;
22449;SDS011;11392;57.390;-2.468;2022-07-10T14:11:41;1.77;;;0.90;;
22449;SDS011;11392;57.390;-2.468;2022-07-10T14:14:10;2.22;;;1.17;;
22449;SDS011;11392;57.390;-2.468;2022-07-10T14:16:37;0.80;;;0.80;;
22449;SDS011;11392;57.390;-2.468;2022-07-10T14:19:05;2.50;;;0.98;;
22449;SDS011;11392;57.390;-2.468;2022-07-10T14:21:37;2.17;;;1.00;;
22449;SDS011;11392;57.390;-2.468;2022-07-10T14:24:06;0.80;;;0.70;;
22449;SDS011;11392;57.390;-2.468;2022-07-10T14:26:35;1.05;;;0.80;;
22449;SDS011;11392;57.390;-2.468;2022-07-10T14:29:02;0.85;;;0.75;;
22449;SDS011;11392;57.390;-2.468;2022-07-10T14:31:30;1.35;;;0.98;;
22449;SDS011;11392;57.390;-2.468;2022-07-10T14:33:57;3.00;;;1.15;;
22449;SDS011;11392;57.390;-2.468;2022-07-10T14:36:25;1.92;;;1.02;;
22449;SDS011;11392;57.390;-2.468;2022-07-10T14:38:55;2.30;;;0.95;;
22449;SDS011;11392;57.390;-2.468;2022-07-10T14:41:25;1.70;;;0.70;;
22449;SDS011;11392;57.390;-2.468;2022-07-10T14:43:53;1.77;;;0.90;;
22449;SDS011;11392;57.390;-2.468;2022-07-10T14:46:22;3.20;;;1.02;;
22449;SDS011;11392;57.390;-2.468;2022-07-10T14:48:50;1.92;;;0.90;;
22449;SDS011;11392;57.390;-2.468;2022-07-10T14:51:17;1.12;;;0.80;;
22449;SDS011;11392;57.390;-2.468;2022-07-10T14:53:51;1.55;;;0.88;;
22449;SDS011;11392;57.390;-2.468;2022-07-10T14:56:20;2.28;;;0.90;;
22449;SDS011;11392;57.390;-2.468;2022-07-10T14:58:47;2.53;;;1.20;;
22449;SDS011;11392;57.390;-2.468;2022-07-10T15:01:35;2.00;;;1.00;;
22449;SDS011;11392;57.390;-2.468;2022-07-10T15:04:02;1.45;;;0.80;;
22449;SDS011;11392;57.390;-2.468;2022-07-10T15:06:29;1.33;;;0.80;;
22449;SDS011;11392;57.390;-2.468;2022-07-10T15:08:56;2.03;;;1.20;;